createdAt,value
2023-08-20T00:01:13.668Z,97592.97
2023-08-20T00:03:42.936Z,97586.13
2023-08-20T00:06:10.029Z,97584.47
2023-08-20T00:08:37.422Z,97585.31
2023-08-20T00:11:06.717Z,97586.34
2023-08-20T00:13:33.616Z,97579.09
2023-08-20T00:16:00.986Z,97587.59
2023-08-20T00:18:28.417Z,97587.59
2023-08-20T00:20:56.438Z,97584.28
2023-08-20T00:23:23.903Z,97586.13
2023-08-20T00:25:51.104Z,97580.13
2023-08-20T00:28:17.930Z,97580.97
2023-08-20T00:30:44.766Z,97576.59
2023-08-20T00:33:11.581Z,97572.47
2023-08-20T00:35:38.453Z,97573.28
2023-08-20T00:38:05.326Z,97573.50
2023-08-20T00:40:32.559Z,97577.22
2023-08-20T00:42:59.456Z,97574.75
2023-08-20T00:45:27.933Z,97580.75
2023-08-20T00:47:55.007Z,97581.78
2023-08-20T00:50:22.286Z,97584.47
2023-08-20T00:52:49.720Z,97583.66
2023-08-20T00:55:16.904Z,97586.56
2023-08-20T00:57:44.010Z,97586.75
2023-08-20T01:00:12.373Z,97580.53
2023-08-20T01:02:40.298Z,97588.84
2023-08-20T01:05:10.596Z,97583.66
2023-08-20T01:07:46.338Z,97583.03
2023-08-20T01:10:23.215Z,97588.63
2023-08-20T01:12:52.783Z,97590.28
2023-08-20T01:15:19.616Z,97593.19
2023-08-20T01:17:47.463Z,97588.00
2023-08-20T01:20:15.285Z,97592.78
2023-08-20T01:22:46.544Z,97597.34
2023-08-20T01:25:26.501Z,97594.84
2023-08-20T01:27:56.297Z,97592.56
2023-08-20T01:30:23.849Z,97601.69
2023-08-20T01:32:53.114Z,97594.63
2023-08-20T01:35:20.152Z,97602.91
2023-08-20T01:37:47.488Z,97601.44
2023-08-20T01:40:14.326Z,97607.84
2023-08-20T01:42:41.662Z,97602.47
2023-08-20T01:45:08.910Z,97599.78
2023-08-20T01:47:36.006Z,97604.34
2023-08-20T01:50:06.805Z,97603.50
2023-08-20T01:52:34.244Z,97614.69
2023-08-20T01:55:01.076Z,97613.84
2023-08-20T01:57:27.995Z,97613.84
2023-08-20T01:59:54.816Z,97611.16
2023-08-20T02:02:21.886Z,97615.09
2023-08-20T02:04:49.126Z,97610.16
2023-08-20T02:07:15.986Z,97606.63
2023-08-20T02:09:42.953Z,97616.56
2023-08-20T02:12:10.491Z,97616.56
2023-08-20T02:14:37.733Z,97618.22
2023-08-20T02:17:05.398Z,97612.84
2023-08-20T02:19:32.216Z,97610.16
2023-08-20T02:21:59.080Z,97620.91
2023-08-20T02:24:25.874Z,97605.81
2023-08-20T02:26:52.666Z,97612.44
2023-08-20T02:29:19.891Z,97611.81
2023-08-20T02:31:46.733Z,97608.28
2023-08-20T02:34:13.733Z,97619.06
2023-08-20T02:36:40.585Z,97617.19
2023-08-20T02:39:09.109Z,97618.22
2023-08-20T02:41:37.293Z,97613.03
2023-08-20T02:44:04.662Z,97626.50
2023-08-20T02:46:31.596Z,97623.81
2023-08-20T02:48:58.367Z,97628.97
2023-08-20T02:51:25.231Z,97633.31
2023-08-20T02:53:52.378Z,97635.38
2023-08-20T02:56:19.166Z,97633.53
2023-08-20T02:58:46.167Z,97631.88
2023-08-20T03:01:23.591Z,97640.78
2023-08-20T03:03:50.867Z,97648.03
2023-08-20T03:06:17.838Z,97639.13
2023-08-20T03:08:44.729Z,97635.59
2023-08-20T03:11:11.815Z,97642.00
2023-08-20T03:13:38.829Z,97632.47
2023-08-20T03:16:05.688Z,97636.41
2023-08-20T03:18:32.567Z,97632.06
2023-08-20T03:20:59.348Z,97620.88
2023-08-20T03:23:26.234Z,97629.34
2023-08-20T03:25:53.064Z,97623.97
2023-08-20T03:28:20.585Z,97628.72
2023-08-20T03:30:47.443Z,97630.59
2023-08-20T03:33:14.276Z,97621.88
2023-08-20T03:35:41.057Z,97629.94
2023-08-20T03:38:07.849Z,97629.13
2023-08-20T03:40:34.705Z,97629.31
2023-08-20T03:43:01.612Z,97624.78
2023-08-20T03:45:31.521Z,97632.00
2023-08-20T03:47:58.363Z,97636.38
2023-08-20T03:50:25.424Z,97631.19
2023-08-20T03:52:52.205Z,97627.25
2023-08-20T03:55:18.979Z,97629.94
2023-08-20T03:57:45.746Z,97627.84
2023-08-20T04:00:13.608Z,97627.22
2023-08-20T04:02:40.492Z,97626.38
2023-08-20T04:05:07.627Z,97629.06
2023-08-20T04:07:34.698Z,97638.81
2023-08-20T04:10:02.066Z,97637.16
2023-08-20T04:12:28.819Z,97639.84
2023-08-20T04:14:55.606Z,97646.88
2023-08-20T04:17:22.404Z,97641.50
2023-08-20T04:19:49.250Z,97648.94
2023-08-20T04:22:16.026Z,97645.59
2023-08-20T04:24:43.064Z,97660.53
2023-08-20T04:27:09.851Z,97657.00
2023-08-20T04:29:36.635Z,97659.69
2023-08-20T04:32:03.585Z,97649.31
2023-08-20T04:34:30.348Z,97654.88
2023-08-20T04:36:57.115Z,97659.44
2023-08-20T04:39:23.925Z,97652.41
2023-08-20T04:41:50.870Z,97651.13
2023-08-20T04:44:17.730Z,97652.56
2023-08-20T04:46:44.818Z,97654.19
2023-08-20T04:49:11.692Z,97649.38
2023-08-20T04:51:38.481Z,97649.16
2023-08-20T04:54:05.484Z,97643.53
2023-08-20T04:56:32.685Z,97647.44
2023-08-20T04:58:59.529Z,97649.50
2023-08-20T05:01:26.322Z,97653.41
2023-08-20T05:03:53.135Z,97660.22
2023-08-20T05:06:19.911Z,97666.41
2023-08-20T05:08:46.715Z,97654.00
2023-08-20T05:11:13.535Z,97663.50
2023-08-20T05:13:40.269Z,97661.00
2023-08-20T05:16:07.140Z,97668.41
2023-08-20T05:18:33.887Z,97674.78
2023-08-20T05:21:00.673Z,97672.09
2023-08-20T05:23:27.890Z,97674.34
2023-08-20T05:25:55.028Z,97676.59
2023-08-20T05:28:21.821Z,97681.59
2023-08-20T05:30:58.548Z,97671.41
2023-08-20T05:33:25.956Z,97673.47
2023-08-20T05:35:52.725Z,97667.66
2023-08-20T05:38:19.527Z,97670.09
2023-08-20T05:40:46.364Z,97657.09
2023-08-20T05:43:13.165Z,97664.34
2023-08-20T05:45:39.905Z,97663.91
2023-08-20T05:48:07.188Z,97670.28
2023-08-20T05:50:33.961Z,97673.81
2023-08-20T05:53:01.964Z,97674.44
2023-08-20T05:55:28.716Z,97674.25
2023-08-20T05:57:55.612Z,97677.78
2023-08-20T06:00:22.482Z,97683.34
2023-08-20T06:02:49.302Z,97677.56
2023-08-20T06:05:16.173Z,97675.72
2023-08-20T06:07:43.083Z,97673.28
2023-08-20T06:10:10.035Z,97681.59
2023-08-20T06:12:37.104Z,97680.00
2023-08-20T06:15:06.024Z,97678.69
2023-08-20T06:17:32.852Z,97666.72
2023-08-20T06:19:59.647Z,97674.34
2023-08-20T06:22:26.431Z,97682.81
2023-08-20T06:24:53.582Z,97680.31
2023-08-20T06:27:20.342Z,97686.72
2023-08-20T06:29:47.117Z,97682.16
2023-08-20T06:32:14.390Z,97691.06
2023-08-20T06:34:41.262Z,97692.09
2023-08-20T06:37:08.107Z,97696.03
2023-08-20T06:39:35.197Z,97698.88
2023-08-20T06:42:02.101Z,97698.91
2023-08-20T06:44:28.889Z,97695.41
2023-08-20T06:46:55.696Z,97701.16
2023-08-20T06:49:22.466Z,97703.69
2023-08-20T06:51:49.319Z,97704.72
2023-08-20T06:54:17.458Z,97697.09
2023-08-20T06:56:44.358Z,97700.41
2023-08-20T06:59:11.896Z,97703.31
2023-08-20T07:01:38.770Z,97704.34
2023-08-20T07:04:06.118Z,97705.81
2023-08-20T07:06:33.070Z,97710.34
2023-08-20T07:08:59.868Z,97715.31
2023-08-20T07:11:26.680Z,97713.91
2023-08-20T07:13:53.510Z,97713.31
2023-08-20T07:16:20.478Z,97722.84
2023-08-20T07:18:47.295Z,97724.50
2023-08-20T07:21:14.090Z,97723.69
2023-08-20T07:23:40.928Z,97719.75
2023-08-20T07:26:13.451Z,97724.94
2023-08-20T07:28:59.754Z,97723.09
2023-08-20T07:31:30.905Z,97728.25
2023-08-20T07:36:30.945Z,97721.44
2023-08-20T07:38:57.789Z,97716.44
2023-08-20T07:41:24.689Z,97720.78
2023-08-20T07:43:51.533Z,97724.53
2023-08-20T07:46:18.375Z,97718.13
2023-08-20T07:48:45.324Z,97718.75
2023-08-20T07:51:12.179Z,97712.97
2023-08-20T07:53:39.005Z,97710.28
2023-08-20T07:56:05.887Z,97705.94
2023-08-20T07:58:32.674Z,97707.19
2023-08-20T08:00:59.739Z,97707.19
2023-08-20T08:03:29.334Z,97703.03
2023-08-20T08:05:56.665Z,97713.59
2023-08-20T08:08:23.932Z,97713.22
2023-08-20T08:10:51.103Z,97716.31
2023-08-20T08:13:21.764Z,97712.00
2023-08-20T08:15:49.130Z,97714.34
2023-08-20T08:18:16.185Z,97718.28
2023-08-20T08:20:43.102Z,97726.78
2023-08-20T08:23:10.023Z,97730.75
2023-08-20T08:25:36.979Z,97736.13
2023-08-20T08:28:04.861Z,97733.88
2023-08-20T08:30:31.936Z,97738.00
2023-08-20T08:32:59.635Z,97743.41
2023-08-20T08:35:26.532Z,97736.78
2023-08-20T08:37:54.012Z,97734.72
2023-08-20T08:40:20.984Z,97734.31
2023-08-20T08:42:51.152Z,97742.44
2023-08-20T08:45:21.324Z,97736.22
2023-08-20T08:47:49.806Z,97741.41
2023-08-20T08:50:17.608Z,97743.25
2023-08-20T08:52:47.358Z,97736.66
2023-08-20T08:55:14.161Z,97740.19
2023-08-20T08:57:40.962Z,97748.69
2023-08-20T09:00:09.211Z,97740.41
2023-08-20T09:02:36.373Z,97741.88
2023-08-20T09:05:03.326Z,97748.28
2023-08-20T09:07:31.781Z,97749.13
2023-08-20T09:10:03.973Z,97752.44
2023-08-20T09:12:35.925Z,97748.97
2023-08-20T09:15:03.305Z,97749.38
2023-08-20T09:17:30.428Z,97752.31
2023-08-20T09:19:58.669Z,97750.88
2023-08-20T09:22:25.829Z,97744.44
2023-08-20T09:24:57.917Z,97750.47
2023-08-20T09:27:25.339Z,97750.25
2023-08-20T09:29:54.842Z,97745.28
2023-08-20T09:32:29.075Z,97754.81
2023-08-20T09:34:57.196Z,97739.91
2023-08-20T09:37:26.042Z,97740.94
2023-08-20T09:39:52.894Z,97741.56
2023-08-20T09:42:20.238Z,97744.25
2023-08-20T09:44:51.488Z,97746.13
2023-08-20T09:47:22.646Z,97744.25
2023-08-20T09:49:49.705Z,97742.59
2023-08-20T09:52:37.677Z,97747.78
2023-08-20T09:55:17.552Z,97750.69
2023-08-20T09:57:46.806Z,97747.16
2023-08-20T10:00:15.091Z,97746.13
2023-08-20T10:02:43.614Z,97752.34
2023-08-20T10:05:12.175Z,97747.59
2023-08-20T10:07:39.633Z,97756.72
2023-08-20T10:10:09.230Z,97744.69
2023-08-20T10:12:40.742Z,97753.19
2023-08-20T10:15:11.772Z,97747.81
2023-08-20T10:17:40.302Z,97753.22
2023-08-20T10:20:09.250Z,97749.06
2023-08-20T10:22:44.962Z,97749.06
2023-08-20T10:25:22.658Z,97739.13
2023-08-20T10:27:49.471Z,97745.97
2023-08-20T10:30:26.479Z,97747.25
2023-08-20T10:33:04.978Z,97755.50
2023-08-20T10:35:41.040Z,97756.53
2023-08-20T10:38:19.648Z,97745.75
2023-08-20T10:41:00.360Z,97747.84
2023-08-20T10:43:27.183Z,97743.47
2023-08-20T10:46:19.058Z,97745.13
2023-08-20T10:48:57.640Z,97746.59
2023-08-20T10:51:35.220Z,97751.97
2023-08-20T10:54:02.140Z,97760.06
2023-08-20T10:56:42.113Z,97750.09
2023-08-20T10:59:15.865Z,97742.44
2023-08-20T11:01:47.203Z,97748.88
2023-08-20T11:04:19.254Z,97745.13
2023-08-20T11:06:47.599Z,97742.63
2023-08-20T11:09:14.951Z,97731.63
2023-08-20T11:11:42.843Z,97734.53
2023-08-20T11:14:17.100Z,97728.53
2023-08-20T11:16:45.682Z,97731.22
2023-08-20T11:19:12.525Z,97734.75
2023-08-20T11:21:41.336Z,97738.06
2023-08-20T11:24:10.126Z,97731.41
2023-08-20T11:26:41.394Z,97728.50
2023-08-20T11:29:13.710Z,97731.59
2023-08-20T11:31:41.273Z,97723.72
2023-08-20T11:34:11.453Z,97723.75
2023-08-20T11:36:40.368Z,97724.13
2023-08-20T11:39:08.925Z,97723.31
2023-08-20T11:41:39.848Z,97725.78
2023-08-20T11:44:09.461Z,97727.44
2023-08-20T11:46:43.693Z,97727.28
2023-08-20T11:49:11.742Z,97724.56
2023-08-20T11:51:48.855Z,97715.22
2023-08-20T11:54:17.849Z,97718.69
2023-08-20T11:56:51.907Z,97718.25
2023-08-20T11:59:20.674Z,97718.91
2023-08-20T12:01:56.478Z,97719.72
2023-08-20T12:04:26.731Z,97717.03
2023-08-20T12:07:09.866Z,97714.72
2023-08-20T12:09:37.205Z,97717.22
2023-08-20T12:12:06.884Z,97707.47
2023-08-20T12:14:34.243Z,97710.13
2023-08-20T12:17:01.245Z,97704.94
2023-08-20T12:19:28.006Z,97706.19
2023-08-20T12:21:54.856Z,97704.31
2023-08-20T12:24:22.095Z,97702.84
2023-08-20T12:26:49.105Z,97704.47
2023-08-20T12:29:16.108Z,97698.88
2023-08-20T12:31:43.580Z,97692.22
2023-08-20T12:34:10.929Z,97701.53
2023-08-20T12:36:38.582Z,97697.78
2023-08-20T12:39:06.153Z,97699.03
2023-08-20T12:41:33.658Z,97702.75
2023-08-20T12:44:00.578Z,97693.41
2023-08-20T12:46:27.458Z,97693.19
2023-08-20T12:48:54.227Z,97685.31
2023-08-20T12:51:21.621Z,97681.78
2023-08-20T12:53:49.546Z,97680.94
2023-08-20T12:56:17.423Z,97679.84
2023-08-20T12:58:45.269Z,97674.03
2023-08-20T13:01:12.654Z,97672.97
2023-08-20T13:03:40.028Z,97672.75
2023-08-20T13:06:07.609Z,97665.28
2023-08-20T13:08:34.786Z,97662.78
2023-08-20T13:11:04.654Z,97679.06
2023-08-20T13:13:33.500Z,97666.53
2023-08-20T13:16:01.371Z,97665.94
2023-08-20T13:18:28.577Z,97660.53
2023-08-20T13:20:55.639Z,97659.31
2023-08-20T13:23:22.482Z,97664.72
2023-08-20T13:25:49.357Z,97664.06
2023-08-20T13:28:16.161Z,97655.91
2023-08-20T13:30:42.925Z,97652.59
2023-08-20T13:33:09.826Z,97653.41
2023-08-20T13:35:36.743Z,97650.72
2023-08-20T13:38:06.107Z,97639.25
2023-08-20T13:40:32.941Z,97645.88
2023-08-20T13:42:59.790Z,97646.47
2023-08-20T13:45:26.925Z,97648.97
2023-08-20T13:47:53.828Z,97640.22
2023-08-20T13:50:20.915Z,97640.63
2023-08-20T13:52:47.714Z,97641.03
2023-08-20T13:55:14.546Z,97639.56
2023-08-20T13:57:41.359Z,97644.53
2023-08-20T14:00:10.093Z,97643.69
2023-08-20T14:02:37.153Z,97647.59
2023-08-20T14:05:05.680Z,97643.84
2023-08-20T14:07:34.051Z,97640.25
2023-08-20T14:10:01.985Z,97633.81
2023-08-20T14:12:29.317Z,97637.88
2023-08-20T14:14:56.556Z,97631.88
2023-08-20T14:17:23.437Z,97636.50
2023-08-20T14:19:50.444Z,97636.06
2023-08-20T14:22:17.203Z,97632.31
2023-08-20T14:24:44.028Z,97630.66
2023-08-20T14:27:11.217Z,97630.66
2023-08-20T14:29:38.205Z,97628.56
2023-08-20T14:32:05.285Z,97640.13
2023-08-20T14:34:32.142Z,97630.16
2023-08-20T14:36:58.996Z,97628.50
2023-08-20T14:39:25.902Z,97629.09
2023-08-20T14:41:52.767Z,97627.66
2023-08-20T14:44:19.996Z,97628.88
2023-08-20T14:46:46.896Z,97617.00
2023-08-20T14:49:13.721Z,97617.75
2023-08-20T14:51:40.552Z,97613.22
2023-08-20T14:54:07.580Z,97625.28
2023-08-20T14:56:34.338Z,97617.16
2023-08-20T14:59:01.596Z,97610.56
2023-08-20T15:01:28.695Z,97618.59
2023-08-20T15:03:55.503Z,97612.59
2023-08-20T15:06:25.228Z,97617.78
2023-08-20T15:08:52.089Z,97613.19
2023-08-20T15:11:18.836Z,97619.19
2023-08-20T15:13:45.861Z,97618.38
2023-08-20T15:16:12.675Z,97613.78
2023-08-20T15:18:39.488Z,97610.84
2023-08-20T15:21:06.289Z,97611.59
2023-08-20T15:23:33.227Z,97611.75
2023-08-20T15:25:59.994Z,97605.28
2023-08-20T15:28:27.666Z,97612.94
2023-08-20T15:30:55.578Z,97614.00
2023-08-20T15:33:22.465Z,97614.00
2023-08-20T15:35:49.711Z,97611.28
2023-08-20T15:38:17.025Z,97612.72
2023-08-20T15:40:43.851Z,97608.75
2023-08-20T15:43:11.254Z,97608.75
2023-08-20T15:45:38.340Z,97603.31
2023-08-20T15:48:05.394Z,97595.25
2023-08-20T15:50:32.195Z,97605.88
2023-08-20T15:52:59.124Z,97600.91
2023-08-20T15:55:25.983Z,97603.16
2023-08-20T15:57:52.866Z,97609.75
2023-08-20T16:00:20.891Z,97600.22
2023-08-20T16:02:49.575Z,97601.88
2023-08-20T16:05:16.652Z,97608.34
2023-08-20T16:07:43.516Z,97595.63
2023-08-20T16:10:12.125Z,97604.34
2023-08-20T16:12:40.167Z,97602.69
2023-08-20T16:15:08.269Z,97598.09
2023-08-20T16:17:35.555Z,97601.03
2023-08-20T16:20:03.169Z,97600.59
2023-08-20T16:22:31.392Z,97609.31
2023-08-20T16:24:58.372Z,97601.41
2023-08-20T16:27:25.227Z,97606.16
2023-08-20T16:29:52.124Z,97606.75
2023-08-20T16:32:19.194Z,97604.03
2023-08-20T16:34:48.147Z,97601.97
2023-08-20T16:37:15.503Z,97598.41
2023-08-20T16:39:42.303Z,97603.84
2023-08-20T16:42:09.228Z,97595.09
2023-08-20T16:44:36.187Z,97599.44
2023-08-20T16:47:03.107Z,97603.22
2023-08-20T16:49:30.256Z,97596.97
2023-08-20T16:52:00.225Z,97595.91
2023-08-20T16:54:27.013Z,97601.97
2023-08-20T16:56:53.831Z,97596.53
2023-08-20T16:59:20.652Z,97599.25
2023-08-20T17:01:48.323Z,97599.44
2023-08-20T17:04:15.545Z,97595.72
2023-08-20T17:06:43.667Z,97602.16
2023-08-20T17:09:10.552Z,97595.91
2023-08-20T17:11:37.539Z,97595.91
2023-08-20T17:14:04.871Z,97597.59
2023-08-20T17:16:33.191Z,97601.13
2023-08-20T17:19:00.709Z,97600.91
2023-08-20T17:21:27.508Z,97603.84
2023-08-20T17:23:54.323Z,97603.00
2023-08-20T17:26:21.549Z,97597.59
2023-08-20T17:28:48.310Z,97594.25
2023-08-20T17:31:15.195Z,97599.69
2023-08-20T17:33:45.579Z,97600.72
2023-08-20T17:36:13.783Z,97605.53
2023-08-20T17:38:40.584Z,97606.84
2023-08-20T17:41:07.833Z,97603.53
2023-08-20T17:43:34.784Z,97608.94
2023-08-20T17:46:01.733Z,97607.28
2023-08-20T17:48:29.513Z,97604.59
2023-08-20T17:50:56.480Z,97611.88
2023-08-20T17:53:27.608Z,97610.22
2023-08-20T17:55:55.344Z,97605.25
2023-08-20T17:58:22.851Z,97610.69
2023-08-20T18:00:50.414Z,97607.38
2023-08-20T18:03:17.805Z,97608.44
2023-08-20T18:05:45.275Z,97612.19
2023-08-20T18:08:12.572Z,97617.00
2023-08-20T18:10:39.396Z,97620.16
2023-08-20T18:13:08.555Z,97620.63
2023-08-20T18:15:35.722Z,97618.97
2023-08-20T18:18:02.794Z,97619.19
2023-08-20T18:20:29.874Z,97615.66
2023-08-20T18:22:57.044Z,97620.47
2023-08-20T18:25:23.801Z,97615.50
2023-08-20T18:27:50.872Z,97623.03
2023-08-20T18:30:17.858Z,97617.03
2023-08-20T18:32:44.848Z,97620.19
2023-08-20T18:35:12.025Z,97618.53
2023-08-20T18:37:39.061Z,97633.09
2023-08-20T18:40:09.924Z,97634.97
2023-08-20T18:42:38.724Z,97638.75
2023-08-20T18:45:06.986Z,97631.91
2023-08-20T18:47:34.087Z,97640.25
2023-08-20T18:50:00.973Z,97638.81
2023-08-20T18:52:27.861Z,97648.81
2023-08-20T18:54:54.716Z,97650.09
2023-08-20T18:57:21.574Z,97650.28
2023-08-20T18:59:48.623Z,97654.03
2023-08-20T19:02:15.501Z,97654.03
2023-08-20T19:04:42.322Z,97659.91
2023-08-20T19:07:10.150Z,97665.31
2023-08-20T19:09:37.408Z,97664.47
2023-08-20T19:12:04.721Z,97672.59
2023-08-20T19:14:31.614Z,97678.22
2023-08-20T19:16:58.442Z,97673.25
2023-08-20T19:19:25.330Z,97679.72
2023-08-20T19:21:53.476Z,97680.19
2023-08-20T19:24:20.703Z,97683.72
2023-08-20T19:26:47.833Z,97675.00
2023-08-20T19:29:14.747Z,97687.72
2023-08-20T19:31:41.702Z,97683.56
2023-08-20T19:34:08.773Z,97689.81
2023-08-20T19:36:35.787Z,97693.56
2023-08-20T19:39:02.658Z,97695.88
2023-08-20T19:41:29.540Z,97691.75
2023-08-20T19:43:56.390Z,97686.34
2023-08-20T19:46:26.421Z,97687.59
2023-08-20T19:48:53.698Z,97681.81
2023-08-20T19:51:20.472Z,97683.91
2023-08-20T19:53:47.222Z,97693.06
2023-08-20T19:56:14.350Z,97693.06
2023-08-20T19:58:41.429Z,97692.25
2023-08-20T20:01:10.031Z,97693.28
2023-08-20T20:03:36.914Z,97693.50
2023-08-20T20:06:04.453Z,97697.50
2023-08-20T20:08:31.521Z,97700.19
2023-08-20T20:10:58.377Z,97699.81
2023-08-20T20:13:25.270Z,97689.22
2023-08-20T20:15:52.376Z,97700.03
2023-08-20T20:18:19.232Z,97691.09
2023-08-20T20:20:49.413Z,97694.22
2023-08-20T20:23:17.693Z,97704.44
2023-08-20T20:25:44.468Z,97704.66
2023-08-20T20:28:11.836Z,97709.44
2023-08-20T20:30:41.502Z,97710.50
2023-08-20T20:33:08.747Z,97706.13
2023-08-20T20:35:35.557Z,97718.19
2023-08-20T20:38:02.313Z,97719.25
2023-08-20T20:40:29.133Z,97717.78
2023-08-20T20:42:55.919Z,97721.75
2023-08-20T20:45:23.680Z,97712.00
2023-08-20T20:47:51.253Z,97713.88
2023-08-20T20:50:18.674Z,97718.66
2023-08-20T20:52:45.449Z,97721.38
2023-08-20T20:55:12.293Z,97721.59
2023-08-20T20:57:39.308Z,97728.25
2023-08-20T21:00:06.969Z,97733.28
2023-08-20T21:02:34.102Z,97726.22
2023-08-20T21:05:01.114Z,97729.13
2023-08-20T21:07:27.928Z,97730.19
2023-08-20T21:09:55.008Z,97723.94
2023-08-20T21:12:22.314Z,97731.22
2023-08-20T21:14:49.131Z,97724.38
2023-08-20T21:17:16.170Z,97729.16
2023-08-20T21:19:42.916Z,97726.72
2023-08-20T21:22:13.425Z,97734.00
2023-08-20T21:24:40.804Z,97733.38
2023-08-20T21:27:11.801Z,97732.56
2023-08-20T21:29:39.806Z,97735.47
2023-08-20T21:32:07.334Z,97740.47
2023-08-20T21:34:34.447Z,97733.41
2023-08-20T21:37:01.964Z,97731.38
2023-08-20T21:39:29.003Z,97731.56
2023-08-20T21:41:56.215Z,97730.53
2023-08-20T21:44:23.250Z,97727.22
2023-08-20T21:46:55.592Z,97724.53
2023-08-20T21:49:25.422Z,97730.97
2023-08-20T21:51:52.721Z,97727.66
2023-08-20T21:54:20.720Z,97732.22
2023-08-20T21:56:52.658Z,97733.06
2023-08-20T21:59:19.748Z,97730.78
2023-08-20T22:01:46.818Z,97733.69
2023-08-20T22:04:13.783Z,97731.00
2023-08-20T22:06:40.593Z,97733.91
2023-08-20T22:09:07.400Z,97734.97
2023-08-20T22:11:34.494Z,97734.34
2023-08-20T22:14:01.425Z,97732.25
2023-08-20T22:16:28.494Z,97736.00
2023-08-20T22:18:55.270Z,97741.81
2023-08-20T22:21:22.022Z,97736.44
2023-08-20T22:23:48.779Z,97737.09
2023-08-20T22:26:15.575Z,97737.31
2023-08-20T22:28:42.378Z,97744.38
2023-08-20T22:31:09.308Z,97747.06
2023-08-20T22:33:36.085Z,97755.16
2023-08-20T22:36:03.611Z,97745.41
2023-08-20T22:38:30.486Z,97750.81
2023-08-20T22:40:57.288Z,97753.94
2023-08-20T22:43:24.081Z,97750.63
2023-08-20T22:45:50.901Z,97751.47
2023-08-20T22:48:17.777Z,97759.78
2023-08-20T22:50:44.564Z,97753.53
2023-08-20T22:53:11.327Z,97758.13
2023-08-20T22:55:38.407Z,97755.00
2023-08-20T22:58:05.864Z,97752.31
2023-08-20T23:00:32.923Z,97752.34
2023-08-20T23:03:00.096Z,97744.03
2023-08-20T23:05:27.029Z,97756.50
2023-08-20T23:07:53.773Z,97752.56
2023-08-20T23:10:20.639Z,97747.38
2023-08-20T23:12:47.381Z,97746.97
2023-08-20T23:15:14.918Z,97747.81
2023-08-20T23:17:41.774Z,97744.91
2023-08-20T23:20:09.373Z,97740.13
2023-08-20T23:22:36.749Z,97743.03
2023-08-20T23:25:04.189Z,97743.03
2023-08-20T23:27:31.325Z,97736.81
2023-08-20T23:29:59.921Z,97741.59
2023-08-20T23:32:27.809Z,97739.50
2023-08-20T23:34:54.617Z,97747.38
2023-08-20T23:37:21.400Z,97739.28
2023-08-20T23:39:48.168Z,97748.00
2023-08-20T23:42:15.611Z,97745.53
2023-08-20T23:44:42.479Z,97743.66
2023-08-20T23:47:09.354Z,97744.06
2023-08-20T23:49:37.306Z,97742.63
2023-08-20T23:52:05.156Z,97740.53
2023-08-20T23:54:31.978Z,97741.16
2023-08-20T23:56:58.822Z,97738.47
2023-08-20T23:59:25.653Z,97739.50
